sensor_id;sensor_type;location;lat;lon;timestamp;temperature;humidity
33255;DHT22;19623;52.482;9.762;2023-04-02T00:09:01;3.80;99.90
33255;DHT22;19623;52.482;9.762;2023-04-02T00:11:31;3.90;99.90
33255;DHT22;19623;52.482;9.762;2023-04-02T00:13:59;3.80;99.90
33255;DHT22;19623;52.482;9.762;2023-04-02T00:16:25;3.80;99.90
33255;DHT22;19623;52.482;9.762;2023-04-02T00:18:52;3.80;99.90
33255;DHT22;19623;52.482;9.762;2023-04-02T00:21:23;3.90;99.90
33255;DHT22;19623;52.482;9.762;2023-04-02T00:23:51;3.90;99.90
33255;DHT22;19623;52.482;9.762;2023-04-02T00:26:19;3.80;99.90
33255;DHT22;19623;52.482;9.762;2023-04-02T00:28:46;3.80;99.90
33255;DHT22;19623;52.482;9.762;2023-04-02T00:31:11;3.80;99.90
33255;DHT22;19623;52.482;9.762;2023-04-02T00:33:37;3.70;99.90
33255;DHT22;19623;52.482;9.762;2023-04-02T00:36:04;3.70;99.90
33255;DHT22;19623;52.482;9.762;2023-04-02T00:38:32;3.70;99.90
33255;DHT22;19623;52.482;9.762;2023-04-02T00:41:00;3.70;99.90
33255;DHT22;19623;52.482;9.762;2023-04-02T00:43:27;3.70;99.90
33255;DHT22;19623;52.482;9.762;2023-04-02T00:45:54;3.60;99.90
33255;DHT22;19623;52.482;9.762;2023-04-02T00:50:45;3.80;99.90
33255;DHT22;19623;52.482;9.762;2023-04-02T00:53:16;3.80;99.90
33255;DHT22;19623;52.482;9.762;2023-04-02T00:55:45;3.70;99.90
33255;DHT22;19623;52.482;9.762;2023-04-02T00:58:14;3.80;99.90
33255;DHT22;19623;52.482;9.762;2023-04-02T01:00:41;3.70;99.90
33255;DHT22;19623;52.482;9.762;2023-04-02T01:05:41;3.70;99.90
33255;DHT22;19623;52.482;9.762;2023-04-02T01:15:41;3.70;99.90
33255;DHT22;19623;52.482;9.762;2023-04-02T01:26:03;3.60;99.90
33255;DHT22;19623;52.482;9.762;2023-04-02T01:31:16;3.50;99.90
33255;DHT22;19623;52.482;9.762;2023-04-02T01:33:42;3.60;99.90
33255;DHT22;19623;52.482;9.762;2023-04-02T01:36:13;3.60;99.90
33255;DHT22;19623;52.482;9.762;2023-04-02T01:38:44;3.60;99.90
33255;DHT22;19623;52.482;9.762;2023-04-02T01:41:12;3.60;99.90
33255;DHT22;19623;52.482;9.762;2023-04-02T01:46:22;3.60;99.90
33255;DHT22;19623;52.482;9.762;2023-04-02T01:48:48;3.50;99.90
33255;DHT22;19623;52.482;9.762;2023-04-02T01:51:27;3.50;99.90
33255;DHT22;19623;52.482;9.762;2023-04-02T01:53:54;3.50;99.90
33255;DHT22;19623;52.482;9.762;2023-04-02T01:56:20;3.40;99.90
33255;DHT22;19623;52.482;9.762;2023-04-02T01:58:46;3.50;99.90
33255;DHT22;19623;52.482;9.762;2023-04-02T02:01:14;3.50;99.90
33255;DHT22;19623;52.482;9.762;2023-04-02T02:03:42;3.50;99.90
33255;DHT22;19623;52.482;9.762;2023-04-02T02:06:11;3.60;99.90
33255;DHT22;19623;52.482;9.762;2023-04-02T02:08:38;3.60;99.90
33255;DHT22;19623;52.482;9.762;2023-04-02T02:11:09;3.60;99.90
33255;DHT22;19623;52.482;9.762;2023-04-02T02:13:36;3.50;99.90
33255;DHT22;19623;52.482;9.762;2023-04-02T02:16:02;3.40;99.90
33255;DHT22;19623;52.482;9.762;2023-04-02T02:18:27;3.50;99.90
33255;DHT22;19623;52.482;9.762;2023-04-02T02:20:53;3.40;99.90
33255;DHT22;19623;52.482;9.762;2023-04-02T02:23:20;3.40;99.90
33255;DHT22;19623;52.482;9.762;2023-04-02T02:25:46;3.50;99.90
33255;DHT22;19623;52.482;9.762;2023-04-02T02:30:50;3.60;99.90
33255;DHT22;19623;52.482;9.762;2023-04-02T02:33:23;3.60;99.90
33255;DHT22;19623;52.482;9.762;2023-04-02T02:35:54;3.60;99.90
33255;DHT22;19623;52.482;9.762;2023-04-02T02:40:46;3.50;99.90
33255;DHT22;19623;52.482;9.762;2023-04-02T02:43:13;3.40;99.90
33255;DHT22;19623;52.482;9.762;2023-04-02T02:45:41;3.30;99.90
33255;DHT22;19623;52.482;9.762;2023-04-02T02:48:09;3.30;99.90
33255;DHT22;19623;52.482;9.762;2023-04-02T02:50:36;3.40;99.90
33255;DHT22;19623;52.482;9.762;2023-04-02T02:53:03;3.40;99.90
33255;DHT22;19623;52.482;9.762;2023-04-02T02:55:29;3.40;99.90
33255;DHT22;19623;52.482;9.762;2023-04-02T03:00:25;3.40;99.90
33255;DHT22;19623;52.482;9.762;2023-04-02T03:02:51;3.30;99.90
33255;DHT22;19623;52.482;9.762;2023-04-02T03:05:18;3.30;99.90
33255;DHT22;19623;52.482;9.762;2023-04-02T03:07:45;3.40;99.90
33255;DHT22;19623;52.482;9.762;2023-04-02T03:12:44;3.40;99.90
33255;DHT22;19623;52.482;9.762;2023-04-02T03:15:26;3.40;99.90
33255;DHT22;19623;52.482;9.762;2023-04-02T03:18:00;3.40;99.90
33255;DHT22;19623;52.482;9.762;2023-04-02T03:20:48;3.40;99.90
33255;DHT22;19623;52.482;9.762;2023-04-02T03:23:22;3.40;99.90
33255;DHT22;19623;52.482;9.762;2023-04-02T03:28:21;3.40;99.90
33255;DHT22;19623;52.482;9.762;2023-04-02T03:30:58;3.40;99.90
33255;DHT22;19623;52.482;9.762;2023-04-02T03:33:30;3.50;99.90
33255;DHT22;19623;52.482;9.762;2023-04-02T03:38:40;3.40;99.90
33255;DHT22;19623;52.482;9.762;2023-04-02T03:41:16;3.30;99.90
33255;DHT22;19623;52.482;9.762;2023-04-02T03:43:44;3.30;99.90
33255;DHT22;19623;52.482;9.762;2023-04-02T03:46:13;3.40;99.90
33255;DHT22;19623;52.482;9.762;2023-04-02T03:48:45;3.40;99.90
33255;DHT22;19623;52.482;9.762;2023-04-02T03:51:13;3.30;99.90
33255;DHT22;19623;52.482;9.762;2023-04-02T03:53:41;3.40;99.90
33255;DHT22;19623;52.482;9.762;2023-04-02T03:56:08;3.30;99.90
33255;DHT22;19623;52.482;9.762;2023-04-02T03:58:43;3.40;99.90
33255;DHT22;19623;52.482;9.762;2023-04-02T04:01:54;3.40;99.90
33255;DHT22;19623;52.482;9.762;2023-04-02T04:04:13;3.40;99.90
33255;DHT22;19623;52.482;9.762;2023-04-02T04:06:41;3.30;99.90
33255;DHT22;19623;52.482;9.762;2023-04-02T04:09:09;3.40;99.90
33255;DHT22;19623;52.482;9.762;2023-04-02T04:11:48;3.40;99.90
33255;DHT22;19623;52.482;9.762;2023-04-02T04:14:30;3.30;99.90
33255;DHT22;19623;52.482;9.762;2023-04-02T04:17:16;3.30;99.90
33255;DHT22;19623;52.482;9.762;2023-04-02T04:19:53;3.30;99.90
33255;DHT22;19623;52.482;9.762;2023-04-02T04:22:23;3.30;99.90
33255;DHT22;19623;52.482;9.762;2023-04-02T04:24:55;3.30;99.90
33255;DHT22;19623;52.482;9.762;2023-04-02T04:28:22;3.30;99.90
33255;DHT22;19623;52.482;9.762;2023-04-02T04:30:21;3.30;99.90
33255;DHT22;19623;52.482;9.762;2023-04-02T04:32:49;3.30;99.90
33255;DHT22;19623;52.482;9.762;2023-04-02T04:35:29;3.30;99.90
33255;DHT22;19623;52.482;9.762;2023-04-02T04:37:57;3.30;99.90
33255;DHT22;19623;52.482;9.762;2023-04-02T04:40:28;3.40;99.90
33255;DHT22;19623;52.482;9.762;2023-04-02T04:42:55;3.40;99.90
33255;DHT22;19623;52.482;9.762;2023-04-02T04:45:29;3.30;99.90
33255;DHT22;19623;52.482;9.762;2023-04-02T04:48:15;3.40;99.90
33255;DHT22;19623;52.482;9.762;2023-04-02T04:50:52;3.40;99.90
33255;DHT22;19623;52.482;9.762;2023-04-02T04:53:19;3.30;99.90
33255;DHT22;19623;52.482;9.762;2023-04-02T04:55:46;3.40;99.90
33255;DHT22;19623;52.482;9.762;2023-04-02T04:58:22;3.40;99.90
33255;DHT22;19623;52.482;9.762;2023-04-02T05:06:12;3.40;99.90
33255;DHT22;19623;52.482;9.762;2023-04-02T05:08:42;3.30;99.90
33255;DHT22;19623;52.482;9.762;2023-04-02T05:11:18;3.30;99.90
33255;DHT22;19623;52.482;9.762;2023-04-02T05:13:53;3.30;99.90
33255;DHT22;19623;52.482;9.762;2023-04-02T05:18:55;3.40;99.90
33255;DHT22;19623;52.482;9.762;2023-04-02T05:21:46;3.40;99.90
33255;DHT22;19623;52.482;9.762;2023-04-02T05:24:32;3.30;99.90
33255;DHT22;19623;52.482;9.762;2023-04-02T05:27:00;3.30;99.90
33255;DHT22;19623;52.482;9.762;2023-04-02T05:29:28;3.30;99.90
33255;DHT22;19623;52.482;9.762;2023-04-02T05:34:25;3.30;99.90
33255;DHT22;19623;52.482;9.762;2023-04-02T05:36:52;3.40;99.90
33255;DHT22;19623;52.482;9.762;2023-04-02T05:39:20;3.50;99.90
33255;DHT22;19623;52.482;9.762;2023-04-02T05:41:46;3.40;99.90
33255;DHT22;19623;52.482;9.762;2023-04-02T05:44:22;3.50;99.90
33255;DHT22;19623;52.482;9.762;2023-04-02T05:46:54;3.40;99.90
33255;DHT22;19623;52.482;9.762;2023-04-02T05:51:50;3.50;99.90
33255;DHT22;19623;52.482;9.762;2023-04-02T05:54:38;3.50;99.90
33255;DHT22;19623;52.482;9.762;2023-04-02T05:57:03;3.50;99.90
33255;DHT22;19623;52.482;9.762;2023-04-02T05:59:36;3.50;99.90
33255;DHT22;19623;52.482;9.762;2023-04-02T06:14:47;3.60;99.90
33255;DHT22;19623;52.482;9.762;2023-04-02T06:17:16;3.60;99.90
33255;DHT22;19623;52.482;9.762;2023-04-02T06:19:42;3.60;99.90
33255;DHT22;19623;52.482;9.762;2023-04-02T06:22:26;3.70;99.90
33255;DHT22;19623;52.482;9.762;2023-04-02T06:25:00;3.70;99.90
33255;DHT22;19623;52.482;9.762;2023-04-02T06:27:27;3.70;99.90
33255;DHT22;19623;52.482;9.762;2023-04-02T06:29:54;3.70;99.90
33255;DHT22;19623;52.482;9.762;2023-04-02T06:32:22;3.70;99.90
33255;DHT22;19623;52.482;9.762;2023-04-02T06:34:48;3.80;99.90
33255;DHT22;19623;52.482;9.762;2023-04-02T06:39:45;3.70;99.90
33255;DHT22;19623;52.482;9.762;2023-04-02T06:42:21;3.70;99.90
33255;DHT22;19623;52.482;9.762;2023-04-02T06:44:49;3.80;99.90
33255;DHT22;19623;52.482;9.762;2023-04-02T06:47:21;3.80;99.90
33255;DHT22;19623;52.482;9.762;2023-04-02T06:49:53;3.90;99.90
33255;DHT22;19623;52.482;9.762;2023-04-02T06:52:24;3.90;99.90
33255;DHT22;19623;52.482;9.762;2023-04-02T06:54:52;4.00;99.90
33255;DHT22;19623;52.482;9.762;2023-04-02T06:57:17;4.00;99.90
33255;DHT22;19623;52.482;9.762;2023-04-02T06:59:43;4.00;99.90
33255;DHT22;19623;52.482;9.762;2023-04-02T07:04:54;4.10;99.90
33255;DHT22;19623;52.482;9.762;2023-04-02T07:07:23;4.10;99.90
33255;DHT22;19623;52.482;9.762;2023-04-02T07:09:48;4.10;99.90
33255;DHT22;19623;52.482;9.762;2023-04-02T07:12:14;4.20;99.90
33255;DHT22;19623;52.482;9.762;2023-04-02T07:14:39;4.20;99.90
33255;DHT22;19623;52.482;9.762;2023-04-02T07:17:05;4.20;99.90
33255;DHT22;19623;52.482;9.762;2023-04-02T07:19:31;4.40;99.90
33255;DHT22;19623;52.482;9.762;2023-04-02T07:21:56;4.30;99.90
33255;DHT22;19623;52.482;9.762;2023-04-02T07:24:22;4.40;99.90
33255;DHT22;19623;52.482;9.762;2023-04-02T07:26:47;4.40;99.90
33255;DHT22;19623;52.482;9.762;2023-04-02T07:29:13;4.50;99.90
33255;DHT22;19623;52.482;9.762;2023-04-02T07:31:39;4.50;99.90
33255;DHT22;19623;52.482;9.762;2023-04-02T07:34:05;4.40;99.90
33255;DHT22;19623;52.482;9.762;2023-04-02T07:36:31;4.40;99.90
33255;DHT22;19623;52.482;9.762;2023-04-02T07:38:57;4.50;99.90
33255;DHT22;19623;52.482;9.762;2023-04-02T07:41:23;4.50;99.90
33255;DHT22;19623;52.482;9.762;2023-04-02T07:43:48;4.60;99.90
33255;DHT22;19623;52.482;9.762;2023-04-02T07:46:14;4.60;99.90
33255;DHT22;19623;52.482;9.762;2023-04-02T07:48:42;4.70;99.90
33255;DHT22;19623;52.482;9.762;2023-04-02T07:51:15;4.70;99.90
33255;DHT22;19623;52.482;9.762;2023-04-02T07:53:41;4.80;99.90
33255;DHT22;19623;52.482;9.762;2023-04-02T07:56:07;4.70;99.90
33255;DHT22;19623;52.482;9.762;2023-04-02T07:58:33;4.60;99.90
33255;DHT22;19623;52.482;9.762;2023-04-02T08:00:59;4.60;99.90
33255;DHT22;19623;52.482;9.762;2023-04-02T08:03:25;4.70;99.90
33255;DHT22;19623;52.482;9.762;2023-04-02T08:05:52;4.60;99.90
33255;DHT22;19623;52.482;9.762;2023-04-02T08:08:19;4.60;99.90
33255;DHT22;19623;52.482;9.762;2023-04-02T08:10:44;4.60;99.90
33255;DHT22;19623;52.482;9.762;2023-04-02T08:13:10;4.70;99.90
33255;DHT22;19623;52.482;9.762;2023-04-02T08:15:36;5.00;99.90
33255;DHT22;19623;52.482;9.762;2023-04-02T08:18:01;5.10;99.90
33255;DHT22;19623;52.482;9.762;2023-04-02T08:20:27;5.10;99.90
33255;DHT22;19623;52.482;9.762;2023-04-02T08:22:52;5.20;99.90
33255;DHT22;19623;52.482;9.762;2023-04-02T08:25:18;5.30;99.90
33255;DHT22;19623;52.482;9.762;2023-04-02T08:27:47;5.10;99.90
33255;DHT22;19623;52.482;9.762;2023-04-02T08:30:12;5.00;99.90
33255;DHT22;19623;52.482;9.762;2023-04-02T08:32:38;5.00;99.90
33255;DHT22;19623;52.482;9.762;2023-04-02T08:35:11;5.10;99.90
33255;DHT22;19623;52.482;9.762;2023-04-02T08:37:36;5.00;99.90
33255;DHT22;19623;52.482;9.762;2023-04-02T08:40:02;4.90;99.90
33255;DHT22;19623;52.482;9.762;2023-04-02T08:47:45;4.80;99.90
33255;DHT22;19623;52.482;9.762;2023-04-02T08:52:50;4.90;99.90
33255;DHT22;19623;52.482;9.762;2023-04-02T08:55:18;5.00;99.90
33255;DHT22;19623;52.482;9.762;2023-04-02T08:57:55;5.10;99.90
33255;DHT22;19623;52.482;9.762;2023-04-02T09:00:32;5.20;99.90
33255;DHT22;19623;52.482;9.762;2023-04-02T09:03:00;5.30;99.90
33255;DHT22;19623;52.482;9.762;2023-04-02T09:05:27;5.40;99.90
33255;DHT22;19623;52.482;9.762;2023-04-02T09:07:54;5.40;99.90
33255;DHT22;19623;52.482;9.762;2023-04-02T09:10:21;5.40;99.90
33255;DHT22;19623;52.482;9.762;2023-04-02T09:12:52;5.30;99.90
33255;DHT22;19623;52.482;9.762;2023-04-02T09:15:24;5.30;99.90
33255;DHT22;19623;52.482;9.762;2023-04-02T09:18:05;5.20;99.90
33255;DHT22;19623;52.482;9.762;2023-04-02T09:20:31;5.30;99.90
33255;DHT22;19623;52.482;9.762;2023-04-02T09:22:56;5.40;99.90
33255;DHT22;19623;52.482;9.762;2023-04-02T09:25:26;5.40;99.90
33255;DHT22;19623;52.482;9.762;2023-04-02T09:27:54;5.60;99.90
33255;DHT22;19623;52.482;9.762;2023-04-02T09:33:05;6.00;99.90
33255;DHT22;19623;52.482;9.762;2023-04-02T09:35:35;6.10;99.90
33255;DHT22;19623;52.482;9.762;2023-04-02T09:43:11;6.30;99.90
33255;DHT22;19623;52.482;9.762;2023-04-02T09:45:39;6.40;99.90
33255;DHT22;19623;52.482;9.762;2023-04-02T09:48:14;6.30;99.90
33255;DHT22;19623;52.482;9.762;2023-04-02T09:50:41;6.10;99.90
33255;DHT22;19623;52.482;9.762;2023-04-02T09:53:27;6.10;99.90
33255;DHT22;19623;52.482;9.762;2023-04-02T09:56:15;6.20;99.90
33255;DHT22;19623;52.482;9.762;2023-04-02T09:58:40;6.30;99.90
33255;DHT22;19623;52.482;9.762;2023-04-02T10:03:51;6.50;99.90
33255;DHT22;19623;52.482;9.762;2023-04-02T10:06:17;6.70;99.90
33255;DHT22;19623;52.482;9.762;2023-04-02T10:08:43;6.70;99.90
33255;DHT22;19623;52.482;9.762;2023-04-02T10:11:10;6.80;99.90
33255;DHT22;19623;52.482;9.762;2023-04-02T10:13:54;7.00;99.90
33255;DHT22;19623;52.482;9.762;2023-04-02T10:16:23;7.30;99.90
33255;DHT22;19623;52.482;9.762;2023-04-02T10:21:18;7.70;99.90
33255;DHT22;19623;52.482;9.762;2023-04-02T10:23:46;7.60;99.90
33255;DHT22;19623;52.482;9.762;2023-04-02T10:35:07;7.40;99.90
33255;DHT22;19623;52.482;9.762;2023-04-02T10:40:27;7.70;99.90
33255;DHT22;19623;52.482;9.762;2023-04-02T10:45:41;7.80;99.90
33255;DHT22;19623;52.482;9.762;2023-04-02T10:48:27;7.80;99.90
33255;DHT22;19623;52.482;9.762;2023-04-02T10:51:03;7.40;99.90
33255;DHT22;19623;52.482;9.762;2023-04-02T10:53:32;7.20;99.90
33255;DHT22;19623;52.482;9.762;2023-04-02T10:56:02;7.20;99.90
33255;DHT22;19623;52.482;9.762;2023-04-02T10:58:34;7.20;99.90
33255;DHT22;19623;52.482;9.762;2023-04-02T11:01:07;7.00;99.90
33255;DHT22;19623;52.482;9.762;2023-04-02T11:03:34;6.60;99.90
33255;DHT22;19623;52.482;9.762;2023-04-02T11:06:03;6.50;99.90
33255;DHT22;19623;52.482;9.762;2023-04-02T11:08:40;6.50;99.90
33255;DHT22;19623;52.482;9.762;2023-04-02T11:13:55;6.50;99.90
33255;DHT22;19623;52.482;9.762;2023-04-02T11:16:26;6.40;99.90
33255;DHT22;19623;52.482;9.762;2023-04-02T11:21:37;6.50;99.90
33255;DHT22;19623;52.482;9.762;2023-04-02T11:24:03;6.50;99.90
33255;DHT22;19623;52.482;9.762;2023-04-02T11:29:05;6.70;99.90
33255;DHT22;19623;52.482;9.762;2023-04-02T11:31:32;6.90;99.90
33255;DHT22;19623;52.482;9.762;2023-04-02T11:33:58;6.80;99.90
33255;DHT22;19623;52.482;9.762;2023-04-02T11:42:04;6.80;99.90
33255;DHT22;19623;52.482;9.762;2023-04-02T11:44:30;6.80;99.90
33255;DHT22;19623;52.482;9.762;2023-04-02T11:49:59;7.00;99.90
33255;DHT22;19623;52.482;9.762;2023-04-02T11:52:26;7.60;99.90
33255;DHT22;19623;52.482;9.762;2023-04-02T11:55:00;8.10;99.90
33255;DHT22;19623;52.482;9.762;2023-04-02T11:57:33;8.30;99.90
33255;DHT22;19623;52.482;9.762;2023-04-02T12:02:33;8.10;99.90
33255;DHT22;19623;52.482;9.762;2023-04-02T12:05:13;8.20;99.90
33255;DHT22;19623;52.482;9.762;2023-04-02T12:13:16;8.70;99.90
33255;DHT22;19623;52.482;9.762;2023-04-02T12:15:45;8.60;99.90
33255;DHT22;19623;52.482;9.762;2023-04-02T12:18:12;8.40;99.90
33255;DHT22;19623;52.482;9.762;2023-04-02T12:20:39;8.50;99.90
33255;DHT22;19623;52.482;9.762;2023-04-02T12:23:14;8.60;99.90
33255;DHT22;19623;52.482;9.762;2023-04-02T12:25:40;8.80;99.90
33255;DHT22;19623;52.482;9.762;2023-04-02T12:28:15;9.00;99.90
33255;DHT22;19623;52.482;9.762;2023-04-02T12:30:45;9.10;99.90
33255;DHT22;19623;52.482;9.762;2023-04-02T12:35:46;9.20;99.90
33255;DHT22;19623;52.482;9.762;2023-04-02T12:38:28;9.30;99.90
33255;DHT22;19623;52.482;9.762;2023-04-02T12:43:30;9.70;99.90
33255;DHT22;19623;52.482;9.762;2023-04-02T12:46:00;9.70;99.90
33255;DHT22;19623;52.482;9.762;2023-04-02T12:48:26;9.80;99.90
33255;DHT22;19623;52.482;9.762;2023-04-02T12:50:52;10.10;99.90
33255;DHT22;19623;52.482;9.762;2023-04-02T12:53:22;10.50;99.90
33255;DHT22;19623;52.482;9.762;2023-04-02T12:55:49;10.70;99.90
33255;DHT22;19623;52.482;9.762;2023-04-02T12:58:23;10.50;99.90
33255;DHT22;19623;52.482;9.762;2023-04-02T13:00:49;9.90;99.90
33255;DHT22;19623;52.482;9.762;2023-04-02T13:03:16;9.20;99.90
33255;DHT22;19623;52.482;9.762;2023-04-02T13:05:46;8.70;99.90
33255;DHT22;19623;52.482;9.762;2023-04-02T13:08:17;8.60;99.90
33255;DHT22;19623;52.482;9.762;2023-04-02T13:10:43;8.60;99.90
33255;DHT22;19623;52.482;9.762;2023-04-02T13:13:11;8.90;99.90
33255;DHT22;19623;52.482;9.762;2023-04-02T13:15:38;9.40;99.90
33255;DHT22;19623;52.482;9.762;2023-04-02T13:18:05;9.70;99.90
33255;DHT22;19623;52.482;9.762;2023-04-02T13:20:38;9.60;99.90
33255;DHT22;19623;52.482;9.762;2023-04-02T13:25:49;9.00;99.90
33255;DHT22;19623;52.482;9.762;2023-04-02T13:28:15;8.90;99.90
33255;DHT22;19623;52.482;9.762;2023-04-02T13:30:40;9.10;99.90
33255;DHT22;19623;52.482;9.762;2023-04-02T13:33:06;9.20;99.90
33255;DHT22;19623;52.482;9.762;2023-04-02T13:35:32;9.40;99.90
33255;DHT22;19623;52.482;9.762;2023-04-02T13:37:57;9.70;99.90
33255;DHT22;19623;52.482;9.762;2023-04-02T13:40:23;10.00;99.90
33255;DHT22;19623;52.482;9.762;2023-04-02T13:42:48;10.40;99.90
33255;DHT22;19623;52.482;9.762;2023-04-02T13:45:22;10.40;99.90
33255;DHT22;19623;52.482;9.762;2023-04-02T13:47:48;10.20;99.90
33255;DHT22;19623;52.482;9.762;2023-04-02T13:50:18;10.00;99.90
33255;DHT22;19623;52.482;9.762;2023-04-02T13:52:44;10.00;99.90
33255;DHT22;19623;52.482;9.762;2023-04-02T13:55:10;9.70;99.90
33255;DHT22;19623;52.482;9.762;2023-04-02T13:57:35;9.50;99.90
33255;DHT22;19623;52.482;9.762;2023-04-02T14:00:04;9.20;99.90
33255;DHT22;19623;52.482;9.762;2023-04-02T14:02:30;9.00;99.90
33255;DHT22;19623;52.482;9.762;2023-04-02T14:15:51;9.30;99.90
33255;DHT22;19623;52.482;9.762;2023-04-02T14:26:45;9.80;99.90
33255;DHT22;19623;52.482;9.762;2023-04-02T14:29:23;10.10;99.90
33255;DHT22;19623;52.482;9.762;2023-04-02T14:32:02;10.10;99.90
33255;DHT22;19623;52.482;9.762;2023-04-02T14:34:33;9.70;99.90
33255;DHT22;19623;52.482;9.762;2023-04-02T14:37:13;9.30;99.90
33255;DHT22;19623;52.482;9.762;2023-04-02T14:39:53;9.30;99.90
33255;DHT22;19623;52.482;9.762;2023-04-02T14:42:25;9.30;99.90
33255;DHT22;19623;52.482;9.762;2023-04-02T14:45:06;9.50;99.90
33255;DHT22;19623;52.482;9.762;2023-04-02T14:47:36;9.60;99.90
33255;DHT22;19623;52.482;9.762;2023-04-02T14:50:10;9.70;99.90
33255;DHT22;19623;52.482;9.762;2023-04-02T14:52:36;9.80;99.90
33255;DHT22;19623;52.482;9.762;2023-04-02T14:55:04;9.40;99.90
33255;DHT22;19623;52.482;9.762;2023-04-02T14:57:34;9.20;99.90
33255;DHT22;19623;52.482;9.762;2023-04-02T15:02:35;9.20;99.90
33255;DHT22;19623;52.482;9.762;2023-04-02T15:05:04;9.30;99.90
33255;DHT22;19623;52.482;9.762;2023-04-02T15:07:38;9.40;99.90
33255;DHT22;19623;52.482;9.762;2023-04-02T15:12:49;9.70;99.90
33255;DHT22;19623;52.482;9.762;2023-04-02T15:17:43;10.10;99.90
33255;DHT22;19623;52.482;9.762;2023-04-02T15:20:13;10.20;99.90
33255;DHT22;19623;52.482;9.762;2023-04-02T15:22:42;10.50;99.90
33255;DHT22;19623;52.482;9.762;2023-04-02T15:30:22;10.60;99.90
33255;DHT22;19623;52.482;9.762;2023-04-02T15:32:49;10.10;99.90
33255;DHT22;19623;52.482;9.762;2023-04-02T15:35:34;9.70;99.90
33255;DHT22;19623;52.482;9.762;2023-04-02T15:40:50;9.10;99.90
33255;DHT22;19623;52.482;9.762;2023-04-02T15:53:27;9.60;99.90
33255;DHT22;19623;52.482;9.762;2023-04-02T15:56:05;9.60;99.90
33255;DHT22;19623;52.482;9.762;2023-04-02T16:03:39;10.20;99.90
33255;DHT22;19623;52.482;9.762;2023-04-02T16:08:54;10.10;99.90
33255;DHT22;19623;52.482;9.762;2023-04-02T16:11:22;10.00;99.90
33255;DHT22;19623;52.482;9.762;2023-04-02T16:13:48;9.80;99.90
33255;DHT22;19623;52.482;9.762;2023-04-02T16:21:15;9.40;99.90
33255;DHT22;19623;52.482;9.762;2023-04-02T16:23:42;9.30;99.90
33255;DHT22;19623;52.482;9.762;2023-04-02T16:34:21;9.50;99.90
33255;DHT22;19623;52.482;9.762;2023-04-02T16:49:21;9.10;99.90
33255;DHT22;19623;52.482;9.762;2023-04-02T16:51:57;9.10;99.90
33255;DHT22;19623;52.482;9.762;2023-04-02T16:54:30;8.90;99.90
33255;DHT22;19623;52.482;9.762;2023-04-02T16:59:53;8.60;99.90
33255;DHT22;19623;52.482;9.762;2023-04-02T17:04:54;8.60;99.90
33255;DHT22;19623;52.482;9.762;2023-04-02T17:10:44;8.70;99.90
33255;DHT22;19623;52.482;9.762;2023-04-02T17:12:45;8.60;99.90
33255;DHT22;19623;52.482;9.762;2023-04-02T17:17:43;8.40;99.90
33255;DHT22;19623;52.482;9.762;2023-04-02T17:20:13;8.40;99.90
33255;DHT22;19623;52.482;9.762;2023-04-02T17:22:38;8.30;99.90
33255;DHT22;19623;52.482;9.762;2023-04-02T17:25:05;8.30;99.90
33255;DHT22;19623;52.482;9.762;2023-04-02T17:27:38;8.20;99.90
33255;DHT22;19623;52.482;9.762;2023-04-02T17:30:15;8.10;99.90
33255;DHT22;19623;52.482;9.762;2023-04-02T17:32:44;8.00;99.90
33255;DHT22;19623;52.482;9.762;2023-04-02T17:37:41;8.10;99.90
33255;DHT22;19623;52.482;9.762;2023-04-02T17:40:17;8.10;99.90
33255;DHT22;19623;52.482;9.762;2023-04-02T17:45:14;8.10;99.90
33255;DHT22;19623;52.482;9.762;2023-04-02T17:47:45;8.00;99.90
33255;DHT22;19623;52.482;9.762;2023-04-02T17:52:58;7.80;99.90
33255;DHT22;19623;52.482;9.762;2023-04-02T18:06:40;7.20;99.90
33255;DHT22;19623;52.482;9.762;2023-04-02T18:11:47;6.90;99.90
33255;DHT22;19623;52.482;9.762;2023-04-02T18:14:26;6.80;99.90
33255;DHT22;19623;52.482;9.762;2023-04-02T18:17:10;6.70;99.90
33255;DHT22;19623;52.482;9.762;2023-04-02T18:22:14;6.50;99.90
33255;DHT22;19623;52.482;9.762;2023-04-02T18:24:50;6.40;99.90
33255;DHT22;19623;52.482;9.762;2023-04-02T18:30:16;6.40;99.90
33255;DHT22;19623;52.482;9.762;2023-04-02T18:42:50;6.10;99.90
33255;DHT22;19623;52.482;9.762;2023-04-02T18:50:35;5.90;99.90
33255;DHT22;19623;52.482;9.762;2023-04-02T18:53:16;5.80;99.90
33255;DHT22;19623;52.482;9.762;2023-04-02T18:56:16;5.90;99.90
33255;DHT22;19623;52.482;9.762;2023-04-02T19:01:07;5.80;99.90
33255;DHT22;19623;52.482;9.762;2023-04-02T19:03:38;5.80;99.90
33255;DHT22;19623;52.482;9.762;2023-04-02T19:06:06;5.80;99.90
33255;DHT22;19623;52.482;9.762;2023-04-02T19:08:44;5.70;99.90
33255;DHT22;19623;52.482;9.762;2023-04-02T19:11:16;5.60;99.90
33255;DHT22;19623;52.482;9.762;2023-04-02T19:21:52;5.50;99.90
33255;DHT22;19623;52.482;9.762;2023-04-02T19:29:50;5.20;99.90
33255;DHT22;19623;52.482;9.762;2023-04-02T19:34:54;5.10;99.90
33255;DHT22;19623;52.482;9.762;2023-04-02T19:39:58;5.00;99.90
33255;DHT22;19623;52.482;9.762;2023-04-02T19:44:55;5.00;99.90
33255;DHT22;19623;52.482;9.762;2023-04-02T19:47:21;4.80;99.90
33255;DHT22;19623;52.482;9.762;2023-04-02T19:49:48;4.80;99.90
33255;DHT22;19623;52.482;9.762;2023-04-02T19:52:14;4.70;99.90
33255;DHT22;19623;52.482;9.762;2023-04-02T19:54:39;4.70;99.90
33255;DHT22;19623;52.482;9.762;2023-04-02T19:57:05;4.60;99.90
33255;DHT22;19623;52.482;9.762;2023-04-02T19:59:30;4.60;99.90
33255;DHT22;19623;52.482;9.762;2023-04-02T20:01:56;4.60;99.90
33255;DHT22;19623;52.482;9.762;2023-04-02T20:04:23;4.70;99.90
33255;DHT22;19623;52.482;9.762;2023-04-02T20:06:49;4.70;99.90
33255;DHT22;19623;52.482;9.762;2023-04-02T20:09:14;4.70;99.90
33255;DHT22;19623;52.482;9.762;2023-04-02T20:11:40;4.70;99.90
33255;DHT22;19623;52.482;9.762;2023-04-02T20:14:06;4.60;99.90
33255;DHT22;19623;52.482;9.762;2023-04-02T20:16:31;4.50;99.90
33255;DHT22;19623;52.482;9.762;2023-04-02T20:18:58;4.40;99.90
33255;DHT22;19623;52.482;9.762;2023-04-02T20:21:24;4.40;99.90
33255;DHT22;19623;52.482;9.762;2023-04-02T20:23:53;4.30;99.90
33255;DHT22;19623;52.482;9.762;2023-04-02T20:26:19;4.20;99.90
33255;DHT22;19623;52.482;9.762;2023-04-02T20:28:46;4.20;99.90
33255;DHT22;19623;52.482;9.762;2023-04-02T20:31:14;4.10;99.90
33255;DHT22;19623;52.482;9.762;2023-04-02T20:33:40;4.10;99.90
33255;DHT22;19623;52.482;9.762;2023-04-02T20:36:07;4.00;99.90
33255;DHT22;19623;52.482;9.762;2023-04-02T20:38:33;3.80;99.90
33255;DHT22;19623;52.482;9.762;2023-04-02T20:41:00;3.80;99.90
33255;DHT22;19623;52.482;9.762;2023-04-02T20:43:26;3.70;99.90
33255;DHT22;19623;52.482;9.762;2023-04-02T20:45:56;3.70;99.90
33255;DHT22;19623;52.482;9.762;2023-04-02T20:48:22;3.70;99.90
33255;DHT22;19623;52.482;9.762;2023-04-02T20:50:48;3.60;99.90
33255;DHT22;19623;52.482;9.762;2023-04-02T20:53:17;3.60;99.90
33255;DHT22;19623;52.482;9.762;2023-04-02T20:55:42;3.60;99.90
33255;DHT22;19623;52.482;9.762;2023-04-02T20:58:11;3.60;99.90
33255;DHT22;19623;52.482;9.762;2023-04-02T21:00:36;3.70;99.90
33255;DHT22;19623;52.482;9.762;2023-04-02T21:03:02;3.60;99.90